createdAt,value
2022-09-30T00:01:07.906Z,14.68
2022-09-30T00:03:34.501Z,14.25
2022-09-30T00:06:08.413Z,14.50
2022-09-30T00:08:39.037Z,13.77
2022-09-30T00:11:13.701Z,14.30
2022-09-30T00:13:41.094Z,14.45
2022-09-30T00:16:10.402Z,15.23
2022-09-30T00:18:38.017Z,14.30
2022-09-30T00:21:05.493Z,15.50
2022-09-30T00:23:32.942Z,15.15
2022-09-30T00:26:02.337Z,14.43
2022-09-30T00:28:29.824Z,14.23
2022-09-30T00:31:06.440Z,14.98
2022-09-30T00:33:33.971Z,15.00
2022-09-30T00:36:01.164Z,14.93
2022-09-30T00:38:28.408Z,15.10
2022-09-30T00:40:56.299Z,14.10
2022-09-30T00:43:45.531Z,13.13
2022-09-30T00:46:21.325Z,13.50
2022-09-30T00:48:54.930Z,14.18
2022-09-30T00:51:43.871Z,14.00
2022-09-30T00:54:14.409Z,13.95
2022-09-30T00:56:46.658Z,14.05
2022-09-30T00:59:23.117Z,13.10
2022-09-30T01:01:50.637Z,14.10
2022-09-30T01:04:26.161Z,14.65
2022-09-30T01:06:53.802Z,13.23
2022-09-30T01:09:21.058Z,13.07
2022-09-30T01:11:48.350Z,13.48
2022-09-30T01:14:22.005Z,14.13
2022-09-30T01:16:54.573Z,13.02
2022-09-30T01:19:36.447Z,15.82
2022-09-30T01:22:08.987Z,16.73
2022-09-30T01:24:47.791Z,15.02
2022-09-30T01:27:36.182Z,14.45
2022-09-30T01:30:25.789Z,14.07
2022-09-30T01:33:54.522Z,14.15
2022-09-30T01:36:59.638Z,13.25
2022-09-30T01:39:47.505Z,13.88
2022-09-30T01:42:17.049Z,13.20
2022-09-30T01:44:55.057Z,12.75
2022-09-30T01:47:53.895Z,11.93
2022-09-30T01:50:33.352Z,12.30
2022-09-30T01:53:19.539Z,11.70
2022-09-30T01:55:53.443Z,12.40
2022-09-30T01:58:51.155Z,13.45
2022-09-30T02:01:31.664Z,12.73
2022-09-30T02:04:10.649Z,12.48
2022-09-30T02:06:42.846Z,13.05
2022-09-30T02:09:16.947Z,12.52
2022-09-30T02:11:43.837Z,12.05
2022-09-30T02:14:28.620Z,12.95
2022-09-30T02:17:07.231Z,12.32
2022-09-30T02:19:40.474Z,11.40
2022-09-30T02:22:28.899Z,12.82
2022-09-30T02:25:01.408Z,12.52
2022-09-30T02:27:41.550Z,13.30
2022-09-30T02:30:12.168Z,12.27
2022-09-30T02:32:49.641Z,12.45
2022-09-30T02:35:27.288Z,12.23
2022-09-30T02:38:06.430Z,12.05
2022-09-30T02:40:40.798Z,12.35
2022-09-30T02:43:09.288Z,12.82
2022-09-30T02:45:50.810Z,11.40
2022-09-30T02:48:24.053Z,12.38
2022-09-30T02:50:59.220Z,13.27
2022-09-30T02:53:51.057Z,13.68
2022-09-30T02:57:02.729Z,13.85
2022-09-30T02:59:31.420Z,13.60
2022-09-30T03:01:58.330Z,13.38
2022-09-30T03:04:29.231Z,13.07
2022-09-30T03:06:56.098Z,13.18
2022-09-30T03:09:27.104Z,11.73
2022-09-30T03:12:02.209Z,12.63
2022-09-30T03:15:01.607Z,14.48
2022-09-30T03:18:11.821Z,14.55
2022-09-30T03:21:00.551Z,14.35
2022-09-30T03:23:47.149Z,16.23
2022-09-30T03:26:28.221Z,15.00
2022-09-30T03:29:36.839Z,16.08
2022-09-30T03:32:19.434Z,16.25
2022-09-30T03:35:04.800Z,17.17
2022-09-30T03:37:51.031Z,17.00
2022-09-30T03:40:42.322Z,16.58
2022-09-30T03:43:33.309Z,16.90
2022-09-30T03:46:30.410Z,16.95
2022-09-30T03:49:02.671Z,17.95
2022-09-30T03:51:30.028Z,18.90
2022-09-30T03:53:59.381Z,19.20
2022-09-30T03:56:31.651Z,19.10
2022-09-30T03:58:58.773Z,18.83
2022-09-30T04:01:25.605Z,19.45
2022-09-30T04:03:53.872Z,20.40
2022-09-30T04:06:25.089Z,19.27
2022-09-30T04:08:53.907Z,18.33
2022-09-30T04:11:20.913Z,17.73
2022-09-30T04:13:47.564Z,18.75
2022-09-30T04:16:14.632Z,17.85
2022-09-30T04:18:42.265Z,17.73
2022-09-30T04:21:11.678Z,18.02
2022-09-30T04:23:40.104Z,19.30
2022-09-30T04:26:08.640Z,18.55
2022-09-30T04:28:35.364Z,18.33
2022-09-30T04:31:04.102Z,17.73
2022-09-30T04:33:31.076Z,18.05
2022-09-30T04:35:59.459Z,19.42
2022-09-30T04:38:26.694Z,20.10
2022-09-30T04:40:57.547Z,19.40
2022-09-30T04:43:25.072Z,18.55
2022-09-30T04:45:52.762Z,18.80
2022-09-30T04:48:19.957Z,18.30
2022-09-30T04:50:46.685Z,18.38
2022-09-30T04:53:14.836Z,19.58
2022-09-30T04:55:43.011Z,18.25
2022-09-30T04:58:09.865Z,20.27
2022-09-30T05:00:36.838Z,20.27
2022-09-30T05:03:04.150Z,18.58
2022-09-30T05:05:32.038Z,18.60
2022-09-30T05:08:05.815Z,19.45
2022-09-30T05:12:59.471Z,17.67
2022-09-30T05:15:26.864Z,20.02
2022-09-30T05:17:53.956Z,19.67
2022-09-30T05:20:21.587Z,20.60
2022-09-30T05:22:53.581Z,20.90
2022-09-30T05:25:20.353Z,20.13
2022-09-30T05:27:51.045Z,20.95
2022-09-30T05:30:18.037Z,21.25
2022-09-30T05:32:44.796Z,21.30
2022-09-30T05:35:12.216Z,21.17
2022-09-30T05:37:39.487Z,20.75
2022-09-30T05:40:07.657Z,22.17
2022-09-30T05:42:35.870Z,20.83
2022-09-30T05:45:06.833Z,22.33
2022-09-30T05:47:34.431Z,22.42
2022-09-30T05:50:01.175Z,22.92
2022-09-30T05:52:28.405Z,22.95
2022-09-30T05:54:56.354Z,25.95
2022-09-30T05:57:23.134Z,24.48
2022-09-30T05:59:50.205Z,23.90
2022-09-30T06:02:16.913Z,24.30
2022-09-30T06:04:43.870Z,25.48
2022-09-30T06:07:10.790Z,26.08
2022-09-30T06:09:37.555Z,27.88
2022-09-30T06:12:06.250Z,28.42
2022-09-30T06:14:33.370Z,26.85
2022-09-30T06:17:02.975Z,29.70
2022-09-30T06:19:30.900Z,30.08
2022-09-30T06:21:58.233Z,28.05
2022-09-30T06:24:25.424Z,27.92
2022-09-30T06:26:53.450Z,29.42
2022-09-30T06:29:20.285Z,26.77
2022-09-30T06:31:46.813Z,27.02
2022-09-30T06:34:13.660Z,27.75
2022-09-30T06:36:40.616Z,27.38
2022-09-30T06:39:10.312Z,26.35
2022-09-30T06:41:43.557Z,28.27
2022-09-30T06:44:10.791Z,28.00
2022-09-30T06:46:50.693Z,27.92
2022-09-30T06:49:19.579Z,27.77
2022-09-30T06:51:46.466Z,27.65
2022-09-30T06:54:13.817Z,27.60
2022-09-30T06:56:40.343Z,28.20
2022-09-30T06:59:07.055Z,26.35
2022-09-30T07:01:33.685Z,27.17
2022-09-30T07:04:08.347Z,29.35
2022-09-30T07:06:35.316Z,29.48
2022-09-30T07:09:01.897Z,27.83
2022-09-30T07:11:28.488Z,29.90
2022-09-30T07:13:55.453Z,29.60
2022-09-30T07:16:22.072Z,27.63
2022-09-30T07:18:49.183Z,27.95
2022-09-30T07:21:16.222Z,26.85
2022-09-30T07:23:47.511Z,28.02
2022-09-30T07:26:19.904Z,29.10
2022-09-30T07:28:47.578Z,28.92
2022-09-30T07:31:34.582Z,27.52
2022-09-30T07:34:08.770Z,26.58
2022-09-30T07:36:38.079Z,26.55
2022-09-30T07:39:08.145Z,26.67
2022-09-30T07:41:38.792Z,27.63
2022-09-30T07:44:07.547Z,27.58
2022-09-30T07:46:38.596Z,27.67
2022-09-30T07:49:08.867Z,23.02
2022-09-30T07:51:39.355Z,27.17
2022-09-30T07:54:09.424Z,27.27
2022-09-30T07:57:05.178Z,24.70
2022-09-30T07:59:27.511Z,27.33
2022-09-30T08:01:54.761Z,28.17
2022-09-30T08:04:22.588Z,27.20
2022-09-30T08:07:00.306Z,26.10
2022-09-30T08:09:29.970Z,27.15
2022-09-30T08:11:56.972Z,25.92
2022-09-30T08:14:26.774Z,25.90
2022-09-30T08:16:55.790Z,26.02
2022-09-30T08:19:25.041Z,25.10
2022-09-30T08:21:54.319Z,26.38
2022-09-30T08:24:22.119Z,24.33
2022-09-30T08:26:49.002Z,24.05
2022-09-30T08:29:20.348Z,23.67
2022-09-30T08:31:48.138Z,22.85
2022-09-30T08:34:15.119Z,22.63
2022-09-30T08:36:42.279Z,23.02
2022-09-30T08:39:10.900Z,20.92
2022-09-30T08:41:59.629Z,19.38
2022-09-30T08:44:34.526Z,19.42
2022-09-30T08:47:39.089Z,20.85
2022-09-30T08:52:57.395Z,18.42
2022-09-30T08:55:28.909Z,17.52
2022-09-30T08:57:57.822Z,17.55
2022-09-30T09:00:24.989Z,16.73
2022-09-30T09:02:57.250Z,16.73
2022-09-30T09:05:30.141Z,16.45
2022-09-30T09:08:26.651Z,15.90
2022-09-30T09:11:15.915Z,15.45
2022-09-30T09:13:49.975Z,14.40
2022-09-30T09:16:35.242Z,13.93
2022-09-30T09:19:17.501Z,14.10
2022-09-30T09:21:53.460Z,13.57
2022-09-30T09:24:30.445Z,13.00
2022-09-30T09:26:59.001Z,13.05
2022-09-30T09:30:05.127Z,13.35
2022-09-30T09:32:32.335Z,12.50
2022-09-30T09:35:33.517Z,11.25
2022-09-30T09:38:29.863Z,11.30
2022-09-30T09:41:27.654Z,11.77
2022-09-30T09:44:18.349Z,11.60
2022-09-30T09:47:05.719Z,10.13
2022-09-30T09:49:40.062Z,9.52
2022-09-30T09:52:12.819Z,9.35
2022-09-30T09:54:48.555Z,8.00
2022-09-30T09:57:17.950Z,8.40
2022-09-30T10:00:41.236Z,8.02
2022-09-30T10:03:23.870Z,6.90
2022-09-30T10:06:16.069Z,7.35
2022-09-30T10:08:56.649Z,6.40
2022-09-30T10:11:26.422Z,6.85
2022-09-30T10:13:58.105Z,5.82
2022-09-30T10:16:36.760Z,6.78
2022-09-30T10:19:20.952Z,6.47
2022-09-30T10:21:47.695Z,5.43
2022-09-30T10:24:29.041Z,4.97
2022-09-30T10:26:55.915Z,8.27
2022-09-30T10:29:34.595Z,5.13
2022-09-30T10:32:03.299Z,4.30
2022-09-30T10:34:33.339Z,4.90
2022-09-30T10:37:09.950Z,5.22
2022-09-30T10:39:38.824Z,4.20
2022-09-30T10:42:18.718Z,5.50
2022-09-30T10:44:53.059Z,3.90
2022-09-30T10:47:23.370Z,3.70
2022-09-30T10:49:57.621Z,4.22
2022-09-30T10:52:32.384Z,4.32
2022-09-30T10:55:00.376Z,4.50
2022-09-30T10:57:32.909Z,4.25
2022-09-30T11:00:06.120Z,4.43
2022-09-30T11:02:51.815Z,4.60
2022-09-30T11:05:28.831Z,3.80
2022-09-30T11:08:03.735Z,2.80
2022-09-30T11:10:55.610Z,3.25
2022-09-30T11:13:59.396Z,3.53
2022-09-30T11:16:52.908Z,3.25
2022-09-30T11:19:32.368Z,3.00
2022-09-30T11:22:36.790Z,3.00
2022-09-30T11:27:58.622Z,3.60
2022-09-30T11:30:38.491Z,3.35
2022-09-30T11:33:17.626Z,3.03
2022-09-30T11:35:55.868Z,3.60
2022-09-30T11:38:46.660Z,4.57
2022-09-30T11:41:31.151Z,3.40
2022-09-30T11:44:23.308Z,3.47
2022-09-30T11:47:01.298Z,3.75
2022-09-30T11:49:46.848Z,3.60
2022-09-30T11:52:26.565Z,3.50
2022-09-30T11:55:15.329Z,4.20
2022-09-30T11:58:28.596Z,3.85
2022-09-30T12:01:04.985Z,3.45
2022-09-30T12:03:39.931Z,3.45
2022-09-30T12:06:35.850Z,4.00
2022-09-30T12:09:12.398Z,3.38
2022-09-30T12:12:03.804Z,3.03
2022-09-30T12:14:34.332Z,3.53
2022-09-30T12:17:04.790Z,4.00
2022-09-30T12:19:38.455Z,3.10
2022-09-30T12:22:31.347Z,3.13
2022-09-30T12:24:57.887Z,2.97
2022-09-30T12:27:33.889Z,2.60
2022-09-30T12:30:19.230Z,3.30
2022-09-30T12:33:06.765Z,2.85
2022-09-30T12:36:02.960Z,3.13
2022-09-30T12:38:29.787Z,3.20
2022-09-30T12:41:11.951Z,2.95
2022-09-30T12:44:03.055Z,3.03
2022-09-30T12:46:41.779Z,2.33
2022-09-30T12:49:14.910Z,2.53
2022-09-30T12:51:49.376Z,3.65
2022-09-30T12:54:39.439Z,2.45
2022-09-30T12:57:09.419Z,2.40
2022-09-30T12:59:44.879Z,2.50
2022-09-30T13:02:35.616Z,2.22
2022-09-30T13:05:27.019Z,2.08
2022-09-30T13:08:05.701Z,2.00
2022-09-30T13:10:56.905Z,2.10
2022-09-30T13:13:36.994Z,2.08
2022-09-30T13:16:04.591Z,2.40
2022-09-30T13:18:31.099Z,2.58
2022-09-30T13:21:10.860Z,2.30
2022-09-30T13:23:45.769Z,2.20
2022-09-30T13:26:27.706Z,2.55
2022-09-30T13:29:00.455Z,2.53
2022-09-30T13:31:32.330Z,2.72
2022-09-30T13:34:02.120Z,2.65
2022-09-30T13:36:32.032Z,2.42
2022-09-30T13:39:20.396Z,2.30
2022-09-30T13:41:59.382Z,2.20
2022-09-30T13:44:26.210Z,2.83
2022-09-30T13:46:57.150Z,2.30
2022-09-30T13:49:53.198Z,2.53
2022-09-30T13:52:29.165Z,2.28
2022-09-30T13:55:00.987Z,2.60
2022-09-30T13:57:51.286Z,2.30
2022-09-30T14:00:21.388Z,2.20
2022-09-30T14:02:54.271Z,2.28
2022-09-30T14:05:40.192Z,2.47
2022-09-30T14:08:24.019Z,2.35
2022-09-30T14:11:29.378Z,2.47
2022-09-30T14:14:17.972Z,4.55
2022-09-30T14:17:30.090Z,2.45
2022-09-30T14:20:26.977Z,2.08
2022-09-30T14:22:54.263Z,2.25
2022-09-30T14:25:23.702Z,2.50
2022-09-30T14:27:56.490Z,2.20
2022-09-30T14:30:27.817Z,2.20
2022-09-30T14:33:17.386Z,2.40
2022-09-30T14:38:31.948Z,2.40
2022-09-30T14:41:06.186Z,2.75
2022-09-30T14:43:39.034Z,2.67
2022-09-30T14:46:14.635Z,2.65
2022-09-30T14:48:44.278Z,2.70
2022-09-30T14:51:15.045Z,2.58
2022-09-30T14:53:52.861Z,2.63
2022-09-30T14:56:27.595Z,2.35
2022-09-30T14:58:57.628Z,2.38
2022-09-30T15:01:26.278Z,2.28
2022-09-30T15:03:57.087Z,2.30
2022-09-30T15:06:30.414Z,2.47
2022-09-30T15:09:23.121Z,2.08
2022-09-30T15:11:49.829Z,2.17
2022-09-30T15:14:20.668Z,2.20
2022-09-30T15:16:53.585Z,2.10
2022-09-30T15:19:28.005Z,2.03
2022-09-30T15:21:57.699Z,2.17
2022-09-30T15:24:27.327Z,2.10
2022-09-30T15:26:55.518Z,3.72
2022-09-30T15:29:22.752Z,2.30
2022-09-30T15:31:59.419Z,2.15
2022-09-30T15:34:29.101Z,2.17
2022-09-30T15:37:00.305Z,2.25
2022-09-30T15:39:50.619Z,2.53
2022-09-30T15:42:35.856Z,2.35
2022-09-30T15:45:34.600Z,2.10
2022-09-30T15:48:25.701Z,2.22
2022-09-30T15:50:56.751Z,2.13
2022-09-30T15:53:26.219Z,2.40
2022-09-30T15:55:55.922Z,2.20
2022-09-30T15:58:42.294Z,2.30
2022-09-30T16:01:25.061Z,2.42
2022-09-30T16:03:56.886Z,2.13
2022-09-30T16:06:32.778Z,2.47
2022-09-30T16:09:03.220Z,3.22
2022-09-30T16:11:42.093Z,2.65
2022-09-30T16:14:16.701Z,2.90
2022-09-30T16:16:51.537Z,2.92
2022-09-30T16:19:19.698Z,3.47
2022-09-30T16:21:52.246Z,3.53
2022-09-30T16:24:25.461Z,3.03
2022-09-30T16:26:55.354Z,3.22
2022-09-30T16:29:23.044Z,3.13
2022-09-30T16:31:52.489Z,3.15
2022-09-30T16:34:27.276Z,3.10
2022-09-30T16:36:55.547Z,3.22
2022-09-30T16:39:22.132Z,3.00
2022-09-30T16:41:50.005Z,2.88
2022-09-30T16:44:16.582Z,3.33
2022-09-30T16:46:43.129Z,3.08
2022-09-30T16:49:17.589Z,3.08
2022-09-30T16:51:44.843Z,3.40
2022-09-30T16:54:12.551Z,3.20
2022-09-30T16:56:39.578Z,3.47
2022-09-30T16:59:14.379Z,3.22
2022-09-30T17:01:42.166Z,3.17
2022-09-30T17:04:11.795Z,3.42
2022-09-30T17:06:40.610Z,3.13
2022-09-30T17:09:07.149Z,3.80
2022-09-30T17:11:36.386Z,3.08
2022-09-30T17:14:04.554Z,3.17
2022-09-30T17:16:31.509Z,3.20
2022-09-30T17:18:58.523Z,3.47
2022-09-30T17:21:26.294Z,3.55
2022-09-30T17:23:55.120Z,3.25
2022-09-30T17:26:21.968Z,3.55
2022-09-30T17:28:48.806Z,3.35
2022-09-30T17:31:15.842Z,3.67
2022-09-30T17:33:42.852Z,3.55
2022-09-30T17:36:12.338Z,4.03
2022-09-30T17:38:39.948Z,3.63
2022-09-30T17:41:26.171Z,3.92
2022-09-30T17:43:52.909Z,3.60
2022-09-30T17:46:23.071Z,3.88
2022-09-30T17:48:54.571Z,3.80
2022-09-30T17:51:21.109Z,3.15
2022-09-30T17:53:48.171Z,3.47
2022-09-30T17:56:20.805Z,3.58
2022-09-30T17:58:49.215Z,3.63
2022-09-30T18:01:17.697Z,3.28
2022-09-30T18:03:47.741Z,3.42
2022-09-30T18:06:19.648Z,3.70
2022-09-30T18:08:50.517Z,3.13
2022-09-30T18:11:22.121Z,2.95
2022-09-30T18:13:57.667Z,2.78
2022-09-30T18:16:30.126Z,3.35
2022-09-30T18:18:59.274Z,2.90
2022-09-30T18:21:26.432Z,2.95
2022-09-30T18:23:57.253Z,3.65
2022-09-30T18:26:33.341Z,3.15
2022-09-30T18:29:03.568Z,3.33
2022-09-30T18:31:40.021Z,3.67
2022-09-30T18:34:07.085Z,3.95
2022-09-30T18:36:33.694Z,4.03
2022-09-30T18:39:02.065Z,3.65
2022-09-30T18:41:30.541Z,4.57
2022-09-30T18:44:02.438Z,3.10
2022-09-30T18:46:30.935Z,3.45
2022-09-30T18:48:57.938Z,3.10
2022-09-30T18:51:25.057Z,3.30
2022-09-30T18:53:57.600Z,3.35
2022-09-30T18:56:29.780Z,3.37
2022-09-30T18:58:56.586Z,3.00
2022-09-30T19:01:32.802Z,2.92
2022-09-30T19:04:03.415Z,3.47
2022-09-30T19:06:30.171Z,3.30
2022-09-30T19:08:56.800Z,3.40
2022-09-30T19:11:25.058Z,3.15
2022-09-30T19:13:52.920Z,3.30
2022-09-30T19:16:19.829Z,2.95
2022-09-30T19:18:46.746Z,3.10
2022-09-30T19:21:16.954Z,2.90
2022-09-30T19:23:43.485Z,3.67
2022-09-30T19:26:15.593Z,3.38
2022-09-30T19:28:42.657Z,2.60
2022-09-30T19:31:12.429Z,2.85
2022-09-30T19:33:48.258Z,2.83
2022-09-30T19:36:19.791Z,3.15
2022-09-30T19:38:46.802Z,3.00
2022-09-30T19:41:15.428Z,2.80
2022-09-30T19:43:50.450Z,2.60
2022-09-30T19:46:18.193Z,2.65
2022-09-30T19:48:45.143Z,2.80
2022-09-30T19:51:14.325Z,2.90
2022-09-30T19:53:45.144Z,2.67
2022-09-30T19:56:16.948Z,2.75
2022-09-30T19:58:46.785Z,3.58
2022-09-30T20:01:15.147Z,2.70
2022-09-30T20:03:42.166Z,2.55
2022-09-30T20:06:14.910Z,3.20
2022-09-30T20:08:50.916Z,2.90
2022-09-30T20:11:19.882Z,2.70
2022-09-30T20:13:49.908Z,3.10
2022-09-30T20:16:17.047Z,3.15
2022-09-30T20:18:43.831Z,3.10
2022-09-30T20:21:13.009Z,3.03
2022-09-30T20:23:40.841Z,3.20
2022-09-30T20:26:14.253Z,2.50
2022-09-30T20:28:41.951Z,2.75
2022-09-30T20:31:11.063Z,2.95
2022-09-30T20:33:38.228Z,3.15
2022-09-30T20:36:08.117Z,2.95
2022-09-30T20:38:35.372Z,3.40
2022-09-30T20:41:03.296Z,3.03
2022-09-30T20:43:31.741Z,3.30
2022-09-30T20:46:01.506Z,3.20
2022-09-30T20:48:39.833Z,3.50
2022-09-30T20:51:11.978Z,3.10
2022-09-30T20:53:44.484Z,3.17
2022-09-30T20:56:15.443Z,3.50
2022-09-30T20:58:42.854Z,3.50
2022-09-30T21:01:14.120Z,2.85
2022-09-30T21:03:41.748Z,3.42
2022-09-30T21:06:12.877Z,3.00
2022-09-30T21:08:43.101Z,2.80
2022-09-30T21:11:10.598Z,3.33
2022-09-30T21:13:41.695Z,2.90
2022-09-30T21:16:13.475Z,2.90
2022-09-30T21:18:40.994Z,3.35
2022-09-30T21:21:08.252Z,3.42
2022-09-30T21:23:35.769Z,3.10
2022-09-30T21:26:08.091Z,3.20
2022-09-30T21:28:34.825Z,2.90
2022-09-30T21:31:06.366Z,3.13
2022-09-30T21:33:32.959Z,3.30
2022-09-30T21:36:04.618Z,3.17
2022-09-30T21:38:34.401Z,3.30
2022-09-30T21:41:05.388Z,2.95
2022-09-30T21:43:33.629Z,3.35
2022-09-30T21:46:02.293Z,3.25
2022-09-30T21:48:30.500Z,3.00
2022-09-30T21:50:57.529Z,3.40
2022-09-30T21:53:27.584Z,3.65
2022-09-30T21:55:55.273Z,3.28
2022-09-30T21:58:23.900Z,3.33
2022-09-30T22:00:50.957Z,3.47
2022-09-30T22:03:18.263Z,4.28
2022-09-30T22:05:54.871Z,3.60
2022-09-30T22:08:22.402Z,3.83
2022-09-30T22:10:49.226Z,3.95
2022-09-30T22:13:15.902Z,3.85
2022-09-30T22:15:44.695Z,3.72
2022-09-30T22:18:15.130Z,3.80
2022-09-30T22:20:41.662Z,4.50
2022-09-30T22:23:08.166Z,5.00
2022-09-30T22:25:34.698Z,4.47
2022-09-30T22:28:01.578Z,4.88
2022-09-30T22:30:28.715Z,4.47
2022-09-30T22:33:13.787Z,4.75
2022-09-30T22:35:59.238Z,4.68
2022-09-30T22:38:25.823Z,4.35
2022-09-30T22:40:55.790Z,5.03
2022-09-30T22:43:24.419Z,4.70
2022-09-30T22:46:02.757Z,4.50
2022-09-30T22:48:30.622Z,4.57
2022-09-30T22:50:58.604Z,4.47
2022-09-30T22:53:26.534Z,4.53
2022-09-30T22:55:54.070Z,4.60
2022-09-30T22:58:23.378Z,4.68
2022-09-30T23:00:58.617Z,4.43
2022-09-30T23:03:25.771Z,4.40
2022-09-30T23:05:53.255Z,4.57
2022-09-30T23:08:19.850Z,4.55
2022-09-30T23:10:50.461Z,4.10
2022-09-30T23:13:19.957Z,4.28
2022-09-30T23:15:47.889Z,4.45
2022-09-30T23:18:17.012Z,4.25
2022-09-30T23:20:53.989Z,5.43
2022-09-30T23:23:20.857Z,4.78
2022-09-30T23:25:47.521Z,4.53
2022-09-30T23:28:14.133Z,5.03
2022-09-30T23:30:40.896Z,4.53
2022-09-30T23:33:09.802Z,4.60
2022-09-30T23:35:36.338Z,5.72
2022-09-30T23:38:02.969Z,4.43
2022-09-30T23:40:29.442Z,4.53
2022-09-30T23:42:57.392Z,4.45
2022-09-30T23:45:24.244Z,4.43
2022-09-30T23:47:51.048Z,4.60
2022-09-30T23:50:17.595Z,4.82
2022-09-30T23:52:44.366Z,5.43
2022-09-30T23:55:11.552Z,4.60
2022-09-30T23:57:38.399Z,4.78
